Latest Weather Observations for Temora

IDN60801

Issued at 4:33 pm EST Saturday 25 June 2016 (issued every 30 minutes, with the page automatically refreshed every 10 minutes)

About weather observations | Map of weather stations | Latest weather observations for NSW | Other Formats
Station Details ID: 073151 Name: TEMORA AIRPORT Lat: -34.43 Lon: 147.51 Height: 280.5 m
Data from the previous 72 hours. | See also: Recent months at Temora
Date/Time
EST
Temp
°C
App
Temp
°C
Dew
Point
°C
Rel
Hum
%
Delta-T
°C
Wind Press
QNH
hPa
Press
MSL
hPa
Rain since
9am
mm
Dir  Spd
km/h
Gust
km/h
Spd
kts
Gust
kts
25/04:30pm 7.4 3.4 2.9 73 1.9 SW 13 20 7 11 1022.3 1022.6 0.0
25/04:00pm 7.3 2.5 2.4 71 2.1 SSW 17 22 9 12 1022.1 1022.5 0.0
25/03:30pm 8.4 3.8 3.7 72 2.1 SW 17 24 9 13 1022.1 1022.5 0.0
25/03:00pm 8.3 3.7 3.6 72 2.0 SW 17 22 9 12 1022.1 1022.5 0.0
25/02:30pm 8.0 3.0 3.5 73 2.0 WSW 19 28 10 15 1022.3 1022.6 0.0
25/02:00pm 7.4 2.6 2.5 71 2.1 SW 17 24 9 13 1022.3 1022.6 0.0
25/01:30pm 7.1 2.4 3.0 75 1.7 WSW 17 24 9 13 1022.5 1022.9 0.0
25/01:00pm 6.8 2.4 2.9 76 1.6 SW 15 22 8 12 1022.9 1023.3 0.0
25/12:30pm 6.9 2.2 3.3 78 1.5 SW 17 22 9 12 1023.1 1023.5 0.0
25/12:00pm 6.4 2.3 4.1 85 1.0 SW 15 20 8 11 1023.4 1023.8 0.0
25/11:30am 6.1 2.2 3.6 84 1.1 SSW 13 19 7 10 1023.4 1023.8 0.0
25/11:00am 5.4 1.3 2.4 81 1.2 SSW 13 19 7 10 1023.7 1024.1 0.0
25/10:30am 4.6 0.4 1.6 81 1.2 SSW 13 20 7 11 1023.7 1024.1 0.0
25/10:00am 4.1 0.7 2.1 87 0.8 SW 9 13 5 7 1023.7 1024.1 0.0
25/09:30am 3.8 -0.4 1.8 87 0.8 SW 13 20 7 11 1023.4 1023.8 0.0
25/09:00am 3.3 -0.5 1.5 88 0.7 SW 11 17 6 9 1023.1 1023.5 2.4
25/08:30am 3.0 -0.8 1.7 91 0.5 SSW 11 15 6 8 1023.0 1023.4 2.4
25/08:00am 2.6 -1.7 1.3 91 0.5 SSW 13 17 7 9 1022.8 1023.2 2.4
25/07:30am 2.5 -1.0 1.3 92 0.5 SSW 9 15 5 8 1022.4 1022.8 2.4
25/07:00am 2.2 -1.3 1.3 94 0.3 SSE 9 13 5 7 1021.9 1022.3 2.4
25/06:30am 1.7 -1.3 0.8 94 0.3 S 6 9 3 5 1021.3 1021.7 2.4
25/06:00am 1.3 -2.4 0.1 92 0.4 SW 9 11 5 6 1020.9 1021.3 2.4
25/05:30am 2.0 -2.3 0.8 92 0.5 WSW 13 20 7 11 1020.5 1020.9 2.4
25/05:00am 2.3 -2.8 0.8 90 0.6 WSW 17 24 9 13 1020.1 1020.5 2.4
25/04:30am 2.2 -2.1 0.9 91 0.5 WSW 13 19 7 10 1020.1 1020.5 2.4
25/04:00am 1.9 -2.1 0.7 92 0.5 SW 11 17 6 9 1019.8 1020.2 2.4
25/03:30am 2.5 -1.8 1.2 91 0.5 WSW 13 20 7 11 1019.8 1020.2 2.4
25/03:00am 2.6 -2.8 1.3 91 0.5 WSW 19 22 10 12 1019.5 1019.9 2.4
25/02:30am 2.7 -2.0 1.2 90 0.6 WSW 15 19 8 10 1019.4 1019.8 2.4
25/02:00am 3.0 -2.4 1.5 90 0.6 SW 19 32 10 17 1019.2 1019.5 2.4
25/01:30am 3.3 -3.0 1.7 89 0.6 WSW 24 33 13 18 1019.0 1019.3 2.4
25/01:00am 3.5 -3.1 1.9 89 0.6 WSW 26 39 14 21 1018.4 1018.8 2.4
25/12:30am 3.7 -2.2 1.9 88 0.7 WSW 22 32 12 17 1018.4 1018.8 2.4
25/12:00am 3.9 -1.9 2.1 88 0.7 WSW 22 32 12 17 1018.2 1018.6 2.4
 
Date/Time
EST
Temp
°C
App
Temp
°C
Dew
Point
°C
Rel
Hum
%
Delta-T
°C
Wind Press
QNH
hPa
Press
MSL
hPa
Rain since
9am
mm
Dir  Spd
km/h
Gust
km/h
Spd
kts
Gust
kts
24/11:30pm 4.1 -1.7 2.1 87 0.8 WSW 22 30 12 16 1018.0 1018.4 2.4
24/11:00pm 4.2 -0.7 2.2 87 0.8 WSW 17 28 9 15 1017.9 1018.3 2.4
24/10:30pm 4.6 0.2 2.8 88 0.7 WSW 15 20 8 11 1017.7 1018.1 2.4
24/10:00pm 4.7 0.3 2.6 86 0.9 WSW 15 20 8 11 1017.4 1017.8 2.4
24/09:30pm 4.9 -0.9 2.4 84 1.0 WSW 22 32 12 17 1016.9 1017.3 2.4
24/09:00pm 5.5 -0.6 2.7 82 1.2 W 24 32 13 17 1016.4 1016.8 2.4
24/08:30pm 5.0 -1.3 1.7 79 1.3 W 24 33 13 18 1016.0 1016.3 2.4
24/08:00pm 5.5 -0.3 2.5 81 1.2 WSW 22 35 12 19 1015.7 1016.0 2.4
24/07:30pm 5.6 -0.5 2.9 83 1.1 W 24 33 13 18 1015.0 1015.3 2.4
24/07:00pm 5.7 -0.4 3.0 83 1.1 W 24 30 13 16 1014.4 1014.8 2.4
24/06:30pm 5.6 -0.9 2.8 82 1.2 W 26 39 14 21 1013.8 1014.2 2.4
24/06:00pm 5.8 -1.4 2.8 81 1.3 W 30 41 16 22 1013.2 1013.5 2.4
24/05:30pm 6.3 0.0 3.6 83 1.2 WSW 26 39 14 21 1012.5 1012.8 2.4
24/05:00pm 6.7 -0.4 3.3 79 1.5 W 30 44 16 24 1011.7 1012.0 2.4
24/04:33pm 7.1 0.4 3.5 78 1.6 W 28 48 15 26 1011.1 1011.4 2.4
24/04:30pm 7.3 0.6 3.9 79 1.5 WSW 28 44 15 24 1010.9 1011.3 2.4
24/04:00pm 6.1 -0.9 4.1 87 0.9 WSW 30 43 16 23 1010.3 1010.6 2.4
24/03:30pm 6.0 -1.7 3.5 84 1.1 WSW 33 50 18 27 1009.9 1010.2 2.2
24/03:02pm 6.9 -0.7 3.9 81 1.3 WSW 33 63 18 34 1009.2 1009.5 2.2
24/03:00pm 7.1 -0.3 4.8 85 1.0 WSW 33 48 18 26 1009.0 1009.3 2.2
24/02:30pm 6.1 -1.2 4.3 88 0.8 WSW 32 52 17 28 1008.5 1008.8 2.0
24/02:00pm 7.3 -1.1 5.8 90 0.7 W 39 65 21 35 1007.7 1008.0 1.8
24/01:30pm 8.8 0.0 5.4 79 1.6 W 41 59 22 32 1007.1 1007.4 1.4
24/01:00pm 7.6 -0.1 5.2 85 1.1 W 35 54 19 29 1007.4 1007.6 1.4
24/12:53pm 7.7 0.0 5.3 85 1.1 W 35 54 19 29 1007.4 1007.6 1.4
24/12:30pm 6.5 0.1 5.3 92 0.5 W 28 41 15 22 1007.8 1008.1 1.4
24/12:00pm 6.2 0.9 4.8 91 0.6 W 22 32 12 17 1008.2 1008.5 0.8
24/11:30am 6.5 -1.0 4.7 88 0.8 W 33 46 18 25 1008.5 1008.8 0.4
24/11:00am 8.1 1.3 4.9 80 1.4 W 30 46 16 25 1008.2 1008.5 0.0
24/10:48am 7.8 0.5 4.6 80 1.4 W 32 50 17 27 1008.4 1008.7 0.0
24/10:30am 7.9 -0.3 4.8 81 1.4 W 37 48 20 26 1008.6 1008.9 0.0
24/10:00am 7.6 -0.6 4.6 81 1.3 W 37 57 20 31 1008.4 1008.7 0.0
24/09:46am 7.2 0.2 4.3 82 1.3 W 30 50 16 27 1008.3 1008.6 0.0
24/09:30am 7.4 1.0 5.2 86 1.0 W 28 37 15 20 1007.9 1008.2 0.0
24/09:00am 7.4 1.1 5.9 90 0.7 W 28 41 15 22 1007.6 1007.9 2.8
24/08:30am 7.4 1.9 5.9 90 0.7 W 24 37 13 20 1007.4 1007.6 2.8
24/08:00am 7.3 2.2 6.1 92 0.6 WNW 22 32 12 17 1006.9 1007.2 2.6
24/07:30am 7.1 1.6 6.0 93 0.5 WNW 24 32 13 17 1006.7 1007.0 2.6
24/07:00am 7.0 1.8 5.3 89 0.8 WNW 22 33 12 18 1006.3 1006.6 2.2
24/06:30am 7.3 2.5 5.8 90 0.7 WNW 20 30 11 16 1006.0 1006.3 2.2
24/06:00am 7.2 3.4 5.8 91 0.6 WNW 15 20 8 11 1005.7 1006.0 2.2
24/05:30am 7.6 3.9 6.4 92 0.6 WNW 15 20 8 11 1005.4 1005.7 2.2
24/05:00am 7.4 3.7 6.3 93 0.5 W 15 20 8 11 1005.3 1005.6 2.2
24/04:30am 7.3 4.0 6.2 93 0.5 W 13 19 7 10 1005.0 1005.3 2.2
24/04:00am 7.2 4.6 6.0 92 0.6 WNW 9 11 5 6 1004.6 1004.9 2.2
24/03:30am 7.5 4.5 6.1 91 0.6 W 11 17 6 9 1004.6 1004.9 2.2
24/03:00am 7.5 3.4 6.3 92 0.6 WSW 17 26 9 14 1005.0 1005.3 2.2
24/02:30am 7.6 2.5 6.1 90 0.7 WSW 22 28 12 15 1004.9 1005.2 2.2
24/02:00am 9.1 2.4 7.5 90 0.8 W 32 48 17 26 1004.8 1005.1 2.0
24/01:44am 10.5 4.9 8.6 88 0.9 NW 28 48 15 26 1004.3 1004.5 1.6
24/01:30am 10.4 6.0 9.0 91 0.7 NW 22 33 12 18 1004.3 1004.5 1.4
24/01:00am 10.2 5.8 9.0 92 0.6 NW 22 33 12 18 1004.4 1004.7 1.4
24/12:30am 10.2 5.3 8.5 89 0.8 NW 24 35 13 19 1004.8 1005.1 1.4
24/12:00am 10.8 6.0 8.9 88 1.0 NW 24 39 13 21 1005.2 1005.5 1.4
 
Date/Time
EST
Temp
°C
App
Temp
°C
Dew
Point
°C
Rel
Hum
%
Delta-T
°C
Wind Press
QNH
hPa
Press
MSL
hPa
Rain since
9am
mm
Dir  Spd
km/h
Gust
km/h
Spd
kts
Gust
kts
23/11:30pm 10.5 6.5 9.1 91 0.7 NW 20 28 11 15 1005.4 1005.7 1.2
23/11:00pm 10.5 6.5 8.9 90 0.8 NNW 20 26 11 14 1005.4 1005.7 1.2
23/10:30pm 10.9 7.3 10.0 94 0.5 NNW 19 26 10 14 1005.6 1005.9 1.0
23/10:00pm 10.8 7.6 10.0 95 0.4 NNW 17 22 9 12 1005.4 1005.7 1.0
23/09:30pm 11.0 7.3 10.1 94 0.5 NNW 20 28 11 15 1005.4 1005.7 1.0
23/09:00pm 11.2 6.8 10.3 94 0.5 NNW 24 32 13 17 1005.2 1005.5 1.0
23/08:30pm 11.1 7.1 10.3 95 0.4 NNW 22 30 12 16 1005.1 1005.4 1.0
23/08:00pm 11.3 7.3 10.5 95 0.4 N 22 30 12 16 1005.2 1005.5 1.0
23/07:30pm 11.4 7.5 10.8 96 0.3 N 22 32 12 17 1005.3 1005.6 1.0
23/07:00pm 11.6 7.9 10.0 90 0.8 N 20 28 11 15 1005.4 1005.7 0.0
23/06:30pm 11.3 8.9 9.9 91 0.7 N 13 19 7 10 1005.5 1005.8 0.0
23/06:00pm 11.3 9.2 9.6 89 0.9 N 11 15 6 8 1005.9 1006.2 0.0
23/05:30pm 11.6 9.0 9.5 87 1.1 N 13 17 7 9 1006.1 1006.4 0.0
23/05:00pm 11.8 9.7 9.7 87 1.1 N 11 13 6 7 1006.3 1006.6 0.0
23/04:30pm 12.4 8.6 8.9 79 1.8 N 19 26 10 14 1006.3 1006.6 0.0
23/04:00pm 12.5 9.1 9.0 79 1.8 N 17 20 9 11 1006.5 1006.8 0.0
23/03:30pm 12.5 8.7 9.1 80 1.7 N 19 22 10 12 1006.9 1007.2 0.0
23/03:00pm 12.3 8.5 9.1 81 1.6 N 19 24 10 13 1007.2 1007.5 0.0
23/02:30pm 12.0 8.9 8.8 81 1.6 N 15 22 8 12 1007.5 1007.8 0.0
23/02:00pm 12.3 7.9 8.8 79 1.8 N 22 32 12 17 1008.1 1008.4 0.0
23/01:30pm 12.3 7.4 8.4 77 2.0 N 24 35 13 19 1008.7 1009.0 0.0
23/01:00pm 12.2 7.2 8.1 76 2.1 N 24 33 13 18 1009.3 1009.6 0.0
23/12:30pm 12.4 7.7 9.1 80 1.7 N 24 32 13 17 1009.9 1010.2 0.0
23/12:00pm 11.9 7.0 8.4 79 1.8 N 24 32 13 17 1010.6 1011.0 0.0
23/11:30am 11.8 7.6 8.1 78 1.8 N 20 30 11 16 1011.4 1011.7 0.0
23/11:00am 10.7 6.6 8.5 86 1.1 N 20 30 11 16 1012.0 1012.3 0.0
23/10:30am 10.2 6.7 8.8 91 0.7 N 17 20 9 11 1012.4 1012.7 0.0
23/10:00am 9.3 5.7 8.2 93 0.5 N 17 20 9 11 1012.7 1013.0 0.0
23/09:30am 9.1 5.8 8.2 94 0.4 N 15 19 8 10 1012.8 1013.1 0.0
23/09:00am 8.4 5.4 7.6 95 0.4 N 13 17 7 9 1012.8 1013.1 0.2
23/08:30am 8.3 5.7 7.7 96 0.3 N 11 13 6 7 1012.8 1013.1 0.2
23/08:00am 7.9 5.6 7.3 96 0.3 N 9 13 5 7 1012.7 1013.0 0.2
23/07:30am 7.7 5.0 7.3 97 0.2 N 11 13 6 7 1012.6 1012.9 0.2
23/07:00am 7.6 5.1 6.7 94 0.4 N 9 9 5 5 1012.4 1012.7 0.2
23/06:30am 8.5 5.9 7.6 94 0.4 N 11 13 6 7 1012.4 1012.7 0.2
23/06:00am 8.5 5.8 7.4 93 0.5 N 11 13 6 7 1012.3 1012.6 0.2
23/05:30am 8.5 6.2 7.4 93 0.5 N 9 11 5 6 1012.3 1012.6 0.2
23/05:00am 8.2 6.2 7.0 92 0.6 N 7 9 4 5 1012.3 1012.6 0.2
23/04:30am 8.3 6.3 7.1 92 0.6 N 7 7 4 4 1012.5 1012.8 0.2
23/04:00am 8.3 6.3 6.9 91 0.7 N 7 9 4 5 1012.6 1012.9 0.2
23/03:30am 8.4 7.7 7.0 91 0.7 CALM 0 0 0 0 1012.6 1012.9 0.2
23/03:00am 8.4 6.6 7.0 91 0.7 NNE 6 7 3 4 1012.9 1013.2 0.2
23/02:30am 8.3 6.3 7.2 93 0.5 N 7 11 4 6 1012.8 1013.1 0.2
23/02:00am 8.0 6.0 6.9 93 0.5 NW 7 11 4 6 1013.3 1013.6 0.2
23/01:30am 7.8 5.9 6.6 92 0.6 N 6 7 3 4 1013.6 1014.0 0.2
23/01:00am 7.9 6.7 6.5 91 0.7 NNW 2 7 1 4 1013.6 1014.0 0.2
23/12:30am 7.5 5.9 6.3 92 0.6 NNW 4 7 2 4 1013.8 1014.2 0.2
23/12:00am 7.1 4.4 5.6 90 0.7 N 9 11 5 6 1013.8 1014.2 0.2
 
Date/Time
EST
Temp
°C
App
Temp
°C
Dew
Point
°C
Rel
Hum
%
Delta-T
°C
Wind Press
QNH
hPa
Press
MSL
hPa
Rain since
9am
mm
Dir  Spd
km/h
Gust
km/h
Spd
kts
Gust
kts
22/11:30pm 8.1 5.5 6.2 88 0.9 N 9 11 5 6 1013.9 1014.3 0.2
22/11:00pm 8.5 6.0 6.5 87 0.9 NNW 9 13 5 7 1014.2 1014.6 0.2
22/10:30pm 9.0 5.4 6.6 85 1.1 NNW 15 17 8 9 1014.3 1014.7 0.2
22/10:00pm 9.6 7.2 7.2 85 1.2 NW 9 11 5 6 1014.2 1014.6 0.2
22/09:30pm 9.9 7.5 7.2 83 1.3 WNW 9 13 5 7 1014.3 1014.7 0.2
22/09:00pm 9.9 7.6 7.3 84 1.3 WNW 9 11 5 6 1014.3 1014.7 0.2
22/08:30pm 9.8 7.5 7.4 85 1.2 WNW 9 11 5 6 1014.1 1014.5 0.2
22/08:00pm 9.9 7.2 7.2 83 1.3 WNW 11 15 6 8 1013.8 1014.2 0.2
22/07:30pm 9.6 7.3 7.4 86 1.1 WNW 9 11 5 6 1013.8 1014.2 0.2
22/07:00pm 9.2 6.8 7.0 86 1.0 WNW 9 13 5 7 1013.3 1013.6 0.2
22/06:30pm 10.0 7.7 7.3 83 1.3 WNW 9 13 5 7 1013.1 1013.4 0.2
22/06:00pm 10.1 7.3 7.0 81 1.5 WNW 11 17 6 9 1012.6 1012.9 0.2
22/05:30pm 10.2 7.4 7.1 81 1.5 WNW 11 13 6 7 1012.0 1012.3 0.2
22/05:00pm 10.4 7.6 6.9 79 1.7 WNW 11 13 6 7 1011.6 1011.9 0.2

Other Formats:

Comma delimited format used in spreadsheet applications
http://www.bom.gov.au/fwo/IDN60801/IDN60801.95722.axf

JavaScript Object Notation format (JSON) in row-major order
http://www.bom.gov.au/fwo/IDN60801/IDN60801.95722.json